Terminal Aerodrome Forecast
Issued by NWS

Home | Current Version | Previous Version | Text Only | Print | Product List | Glossary On
Versions: 1 2 3 4 5 6 7 8 9 10 11 12 13 14 15 16
000
FTUS46 KMFR 292340
TAFRBG
TAF
KRBG 292340Z 3000/3024 35005KT P6SM SCT120 BKN250
     FM301100 00000KT P6SM -RA SCT015 BKN025 OVC040
     FM302200 35005KT P6SM BKN040=

USA.gov is the U.S. government's official web portal to all federal, state and local government web resources and services.